createdAt,value
2023-02-02T00:02:40.518Z,7.10
2023-02-02T00:05:49.366Z,9.20
2023-02-02T00:08:53.068Z,7.60
2023-02-02T00:11:56.855Z,9.50
2023-02-02T00:14:59.734Z,25.40
2023-02-02T00:18:02.777Z,11.80
2023-02-02T00:21:05.593Z,8.20
2023-02-02T00:24:11.545Z,10.60
2023-02-02T00:27:14.311Z,13.00
2023-02-02T00:30:19.418Z,11.30
2023-02-02T00:33:22.672Z,7.60
2023-02-02T00:36:26.105Z,14.70
2023-02-02T00:39:29.700Z,7.40
2023-02-02T00:42:32.659Z,7.60
2023-02-02T00:45:35.443Z,11.30
2023-02-02T00:48:40.626Z,9.80
2023-02-02T00:51:43.490Z,9.00
2023-02-02T00:54:46.384Z,7.20
2023-02-02T00:57:49.244Z,18.50
2023-02-02T01:00:52.518Z,9.20
2023-02-02T01:03:55.518Z,7.30
2023-02-02T01:06:58.996Z,14.50
2023-02-02T01:10:04.380Z,16.00
2023-02-02T01:13:09.231Z,10.00
2023-02-02T01:16:12.735Z,10.60
2023-02-02T01:19:16.385Z,12.50
2023-02-02T01:22:19.151Z,8.70
2023-02-02T01:25:22.944Z,9.40
2023-02-02T01:28:27.831Z,7.60
2023-02-02T01:31:32.546Z,10.40
2023-02-02T01:34:35.578Z,9.00
2023-02-02T01:37:39.280Z,7.80
2023-02-02T01:40:52.073Z,8.90
2023-02-02T01:44:04.347Z,7.50
2023-02-02T01:47:07.234Z,6.80
2023-02-02T01:50:14.454Z,6.70
2023-02-02T01:53:19.988Z,6.80
2023-02-02T01:56:38.471Z,6.90
2023-02-02T01:59:42.841Z,7.10
2023-02-02T02:02:49.311Z,7.30
2023-02-02T02:06:01.192Z,9.20
2023-02-02T02:09:06.521Z,11.80
2023-02-02T02:12:15.429Z,9.00
2023-02-02T02:15:38.514Z,8.40
2023-02-02T02:18:50.554Z,7.60
2023-02-02T02:22:28.894Z,8.80
2023-02-02T02:26:16.942Z,11.70
2023-02-02T02:32:54.895Z,6.20
2023-02-02T02:39:43.079Z,11.10
2023-02-02T02:42:52.596Z,9.70
2023-02-02T02:45:55.594Z,9.40
2023-02-02T02:49:01.101Z,8.10
2023-02-02T02:52:04.046Z,6.70
2023-02-02T02:55:11.983Z,7.50
2023-02-02T02:58:36.212Z,8.10
2023-02-02T03:02:04.656Z,6.00
2023-02-02T03:05:33.639Z,8.00
2023-02-02T03:08:49.372Z,9.90
2023-02-02T03:11:52.336Z,10.20
2023-02-02T03:14:55.272Z,8.40
2023-02-02T03:17:58.454Z,9.90
2023-02-02T03:21:03.945Z,7.20
2023-02-02T03:24:09.163Z,8.20
2023-02-02T03:27:12.142Z,8.80
2023-02-02T03:30:15.581Z,7.60
2023-02-02T03:33:18.885Z,6.40
2023-02-02T03:36:21.757Z,6.40
2023-02-02T03:39:24.573Z,6.90
2023-02-02T03:42:27.565Z,6.50
2023-02-02T03:45:30.792Z,6.00
2023-02-02T03:48:38.187Z,6.50
2023-02-02T03:51:41.099Z,7.70
2023-02-02T03:54:43.848Z,7.70
2023-02-02T03:57:46.657Z,9.00
2023-02-02T04:00:49.745Z,8.70
2023-02-02T04:03:52.451Z,8.50
2023-02-02T04:06:55.444Z,7.30
2023-02-02T04:09:58.146Z,7.00
2023-02-02T04:13:01.008Z,6.40
2023-02-02T04:16:04.271Z,6.70
2023-02-02T04:19:07.265Z,6.80
2023-02-02T04:22:10.067Z,7.10
2023-02-02T04:25:15.393Z,6.30
2023-02-02T04:28:18.782Z,6.90
2023-02-02T04:31:22.874Z,5.80
2023-02-02T04:34:25.722Z,6.00
2023-02-02T04:37:31.500Z,6.00
2023-02-02T04:40:37.713Z,5.90
2023-02-02T04:43:40.588Z,5.80
2023-02-02T04:46:44.145Z,6.00
2023-02-02T04:49:47.984Z,4.80
2023-02-02T04:52:50.727Z,4.90
2023-02-02T04:55:53.502Z,4.40
2023-02-02T04:58:56.439Z,4.60
2023-02-02T05:02:01.067Z,4.80
2023-02-02T05:05:05.384Z,4.10
2023-02-02T05:08:09.738Z,3.90
2023-02-02T05:11:15.542Z,3.80
2023-02-02T05:14:20.008Z,4.10
2023-02-02T05:17:22.745Z,4.30
2023-02-02T05:20:25.512Z,4.20
2023-02-02T05:23:28.796Z,4.20
2023-02-02T05:26:31.557Z,4.60
2023-02-02T05:29:34.381Z,4.10
2023-02-02T05:32:37.148Z,4.10
2023-02-02T05:35:39.887Z,3.50
2023-02-02T05:38:42.658Z,5.60
2023-02-02T05:41:45.543Z,5.00
2023-02-02T05:44:48.318Z,4.80
2023-02-02T05:47:54.048Z,6.00
2023-02-02T05:51:15.498Z,6.50
2023-02-02T05:54:20.704Z,7.00
2023-02-02T05:57:23.778Z,6.10
2023-02-02T06:00:26.659Z,5.30
2023-02-02T06:03:30.315Z,5.20
2023-02-02T06:06:37.312Z,4.80
2023-02-02T06:12:44.401Z,4.60
2023-02-02T06:15:47.561Z,4.50
2023-02-02T06:18:50.398Z,5.00
2023-02-02T06:21:53.427Z,4.70
2023-02-02T06:24:56.211Z,4.70
2023-02-02T06:28:01.809Z,4.70
2023-02-02T06:31:09.387Z,5.00
2023-02-02T06:34:15.185Z,5.90
2023-02-02T06:37:17.964Z,4.90
2023-02-02T06:40:22.792Z,4.60
2023-02-02T06:43:25.516Z,4.60
2023-02-02T06:46:28.609Z,5.90
2023-02-02T06:49:31.534Z,6.50
2023-02-02T06:52:34.277Z,5.00
2023-02-02T06:55:37.887Z,6.30
2023-02-02T06:58:41.342Z,5.50
2023-02-02T07:01:44.208Z,4.60
2023-02-02T07:04:47.056Z,5.60
2023-02-02T07:07:51.208Z,4.40
2023-02-02T07:11:13.314Z,4.70
2023-02-02T07:14:16.660Z,6.40
2023-02-02T07:17:20.048Z,5.50
2023-02-02T07:20:22.862Z,4.80
2023-02-02T07:23:26.198Z,9.60
2023-02-02T07:26:29.430Z,5.90
2023-02-02T07:29:32.386Z,5.30
2023-02-02T07:32:35.251Z,6.40
2023-02-02T07:35:38.028Z,8.00
2023-02-02T07:38:41.010Z,6.60
2023-02-02T07:41:46.970Z,5.60
2023-02-02T07:44:56.035Z,20.40
2023-02-02T07:48:02.134Z,63.80
2023-02-02T07:51:08.200Z,36.20
2023-02-02T07:54:11.314Z,26.10
2023-02-02T07:57:17.521Z,27.20
2023-02-02T08:00:20.905Z,46.90
2023-02-02T08:03:23.690Z,31.40
2023-02-02T08:06:32.268Z,19.10
2023-02-02T08:09:35.277Z,12.50
2023-02-02T08:12:38.058Z,7.10
2023-02-02T08:15:40.835Z,6.50
2023-02-02T08:18:44.121Z,6.00
2023-02-02T08:21:47.008Z,5.00
2023-02-02T08:24:51.077Z,6.00
2023-02-02T08:27:55.322Z,8.10
2023-02-02T08:31:08.491Z,6.90
2023-02-02T08:34:14.063Z,9.30
2023-02-02T08:37:16.847Z,6.70
2023-02-02T08:40:19.728Z,4.00
2023-02-02T08:43:25.165Z,6.20
2023-02-02T08:46:28.132Z,6.80
2023-02-02T08:49:31.119Z,6.70
2023-02-02T08:52:33.940Z,3.60
2023-02-02T08:55:36.885Z,3.90
2023-02-02T08:58:40.628Z,4.00
2023-02-02T09:01:43.605Z,5.40
2023-02-02T09:04:48.375Z,8.00
2023-02-02T09:07:51.262Z,4.30
2023-02-02T09:10:54.037Z,4.00
2023-02-02T09:13:58.937Z,4.50
2023-02-02T09:17:01.773Z,5.30
2023-02-02T09:20:05.215Z,3.80
2023-02-02T09:23:07.985Z,4.40
2023-02-02T09:26:26.194Z,5.20
2023-02-02T09:29:29.099Z,5.20
2023-02-02T09:32:34.329Z,4.60
2023-02-02T09:35:37.142Z,5.00
2023-02-02T09:38:41.681Z,6.00
2023-02-02T09:41:59.653Z,3.60
2023-02-02T09:45:14.381Z,3.70
2023-02-02T09:48:46.762Z,6.40
2023-02-02T09:51:56.889Z,3.60
2023-02-02T09:55:05.271Z,3.40
2023-02-02T09:58:37.709Z,4.00
2023-02-02T10:01:44.987Z,9.40
2023-02-02T10:04:52.995Z,4.20
2023-02-02T10:08:02.044Z,4.00
2023-02-02T10:11:30.736Z,5.30
2023-02-02T10:14:48.755Z,6.20
2023-02-02T10:17:58.005Z,6.40
2023-02-02T10:21:12.641Z,6.10
2023-02-02T10:24:41.825Z,7.00
2023-02-02T10:28:07.314Z,7.00
2023-02-02T10:31:35.023Z,8.90
2023-02-02T10:38:48.353Z,10.30
2023-02-02T10:42:28.264Z,9.80
2023-02-02T10:45:31.456Z,9.00
2023-02-02T10:48:40.415Z,8.90
2023-02-02T10:52:08.407Z,12.40
2023-02-02T10:55:14.100Z,8.50
2023-02-02T10:58:29.301Z,8.90
2023-02-02T11:01:32.084Z,5.70
2023-02-02T11:04:53.802Z,6.90
2023-02-02T11:07:57.061Z,10.80
2023-02-02T11:11:11.804Z,7.00
2023-02-02T11:14:19.298Z,4.10
2023-02-02T11:17:24.429Z,3.50
2023-02-02T11:20:37.857Z,3.40
2023-02-02T11:23:41.095Z,3.30
2023-02-02T11:26:55.321Z,5.10
2023-02-02T11:30:01.163Z,7.60
2023-02-02T11:33:28.470Z,1.80
2023-02-02T11:36:31.343Z,2.10
2023-02-02T11:39:34.092Z,3.00
2023-02-02T11:42:37.208Z,3.30
2023-02-02T11:45:43.341Z,3.90
2023-02-02T11:49:00.964Z,3.50
2023-02-02T11:52:07.674Z,3.10
2023-02-02T11:55:17.311Z,4.20
2023-02-02T11:58:27.508Z,5.50
2023-02-02T12:01:34.711Z,4.50
2023-02-02T12:04:37.536Z,5.40
2023-02-02T12:07:42.421Z,7.00
2023-02-02T12:10:57.086Z,8.20
2023-02-02T12:14:13.408Z,6.80
2023-02-02T12:17:41.730Z,7.10
2023-02-02T12:21:05.008Z,5.20
2023-02-02T12:24:17.427Z,8.00
2023-02-02T12:27:36.050Z,6.70
2023-02-02T12:31:02.282Z,5.80
2023-02-02T12:34:14.998Z,9.30
2023-02-02T12:37:35.147Z,8.80
2023-02-02T12:40:43.644Z,13.60
2023-02-02T12:43:58.306Z,8.50
2023-02-02T12:47:25.932Z,12.30
2023-02-02T12:54:34.717Z,8.90
2023-02-02T12:58:34.893Z,6.70
2023-02-02T13:01:51.806Z,7.00
2023-02-02T13:05:26.998Z,6.20
2023-02-02T13:08:48.439Z,4.10
2023-02-02T13:12:01.286Z,5.30
2023-02-02T13:15:10.172Z,6.30
2023-02-02T13:18:53.400Z,2.50
2023-02-02T13:21:59.202Z,2.50
2023-02-02T13:25:08.789Z,2.50
2023-02-02T13:28:20.736Z,3.00
2023-02-02T13:31:51.943Z,3.60
2023-02-02T13:35:22.145Z,2.30
2023-02-02T13:38:29.003Z,3.50
2023-02-02T13:41:32.200Z,4.30
2023-02-02T13:44:40.704Z,5.00
2023-02-02T13:47:52.330Z,5.40
2023-02-02T13:51:10.075Z,4.70
2023-02-02T13:54:32.585Z,5.80
2023-02-02T13:57:45.784Z,5.00
2023-02-02T14:00:51.792Z,6.70
2023-02-02T14:03:57.739Z,4.90
2023-02-02T14:07:05.346Z,6.00
2023-02-02T14:10:33.421Z,5.90
2023-02-02T14:17:13.273Z,4.50
2023-02-02T14:20:43.729Z,3.90
2023-02-02T14:23:51.347Z,5.30
2023-02-02T14:26:59.830Z,3.50
2023-02-02T14:30:32.865Z,3.10
2023-02-02T14:33:42.193Z,3.40
2023-02-02T14:37:10.968Z,3.80
2023-02-02T14:40:48.729Z,5.80
2023-02-02T14:43:53.735Z,5.20
2023-02-02T14:46:56.553Z,4.40
2023-02-02T14:49:59.539Z,6.40
2023-02-02T14:53:22.819Z,6.90
2023-02-02T14:56:50.074Z,5.20
2023-02-02T14:59:55.353Z,7.10
2023-02-02T15:03:36.035Z,4.80
2023-02-02T15:06:42.364Z,7.60
2023-02-02T15:09:45.285Z,6.20
2023-02-02T15:12:49.616Z,4.30
2023-02-02T15:16:14.671Z,3.10
2023-02-02T15:19:32.331Z,3.60
2023-02-02T15:22:48.941Z,3.80
2023-02-02T15:26:09.204Z,6.10
2023-02-02T15:29:32.454Z,4.10
2023-02-02T15:32:36.770Z,5.40
2023-02-02T15:35:40.049Z,4.30
2023-02-02T15:38:43.740Z,5.70
2023-02-02T15:41:47.898Z,4.30
2023-02-02T15:44:50.691Z,3.70
2023-02-02T15:47:54.933Z,5.60
2023-02-02T15:51:07.359Z,6.30
2023-02-02T15:54:32.175Z,5.60
2023-02-02T15:57:40.654Z,6.40
2023-02-02T16:00:43.439Z,6.60
2023-02-02T16:03:52.314Z,7.30
2023-02-02T16:06:56.117Z,4.90
2023-02-02T16:10:07.349Z,7.80
2023-02-02T16:13:24.372Z,7.40
2023-02-02T16:16:30.161Z,5.50
2023-02-02T16:19:40.769Z,5.90
2023-02-02T16:22:46.961Z,8.90
2023-02-02T16:25:55.216Z,9.10
2023-02-02T16:28:58.521Z,7.30
2023-02-02T16:32:02.487Z,7.60
2023-02-02T16:35:26.054Z,6.70
2023-02-02T16:38:37.670Z,7.00
2023-02-02T16:41:40.676Z,8.70
2023-02-02T16:44:44.077Z,7.20
2023-02-02T16:47:46.907Z,6.70
2023-02-02T16:51:03.892Z,9.30
2023-02-02T16:54:06.629Z,11.00
2023-02-02T16:57:26.496Z,9.00
2023-02-02T17:00:31.763Z,7.80
2023-02-02T17:03:39.911Z,9.10
2023-02-02T17:06:52.383Z,10.40
2023-02-02T17:10:18.878Z,11.60
2023-02-02T17:13:30.881Z,9.30
2023-02-02T17:16:33.658Z,10.70
2023-02-02T17:19:36.586Z,11.20
2023-02-02T17:22:46.635Z,11.00
2023-02-02T17:25:49.497Z,10.00
2023-02-02T17:28:56.623Z,10.00
2023-02-02T17:32:00.545Z,11.60
2023-02-02T17:35:13.893Z,11.50
2023-02-02T17:38:17.644Z,11.70
2023-02-02T17:41:22.308Z,11.00
2023-02-02T17:44:25.174Z,9.30
2023-02-02T17:47:28.013Z,8.90
2023-02-02T17:50:32.166Z,8.40
2023-02-02T17:53:34.902Z,8.10
2023-02-02T17:56:37.699Z,7.40
2023-02-02T17:59:40.436Z,8.80
2023-02-02T18:02:43.774Z,7.80
2023-02-02T18:05:47.009Z,6.90
2023-02-02T18:08:49.827Z,7.20
2023-02-02T18:11:52.669Z,6.90
2023-02-02T18:14:55.755Z,8.70
2023-02-02T18:17:58.497Z,7.60
2023-02-02T18:21:01.397Z,8.60
2023-02-02T18:24:04.515Z,8.00
2023-02-02T18:27:08.487Z,7.20
2023-02-02T18:30:12.296Z,7.30
2023-02-02T18:33:19.771Z,9.50
2023-02-02T18:36:23.691Z,9.10
2023-02-02T18:39:28.608Z,7.80
2023-02-02T18:42:33.232Z,9.20
2023-02-02T18:45:36.980Z,8.50
2023-02-02T18:48:43.428Z,10.50
2023-02-02T18:51:48.021Z,6.80
2023-02-02T18:54:51.047Z,9.90
2023-02-02T18:57:53.976Z,9.40
2023-02-02T19:00:56.844Z,10.50
2023-02-02T19:04:00.688Z,9.10
2023-02-02T19:07:24.459Z,8.00
2023-02-02T19:10:28.039Z,8.10
2023-02-02T19:13:30.813Z,7.90
2023-02-02T19:16:36.033Z,7.90
2023-02-02T19:19:40.516Z,9.10
2023-02-02T19:22:43.510Z,8.30
2023-02-02T19:25:51.383Z,10.80
2023-02-02T19:29:08.182Z,6.70
2023-02-02T19:32:21.751Z,8.70
2023-02-02T19:35:26.625Z,7.40
2023-02-02T19:38:30.037Z,7.60
2023-02-02T19:41:32.884Z,8.30
2023-02-02T19:44:35.856Z,6.70
2023-02-02T19:47:40.991Z,6.90
2023-02-02T19:50:44.412Z,8.20
2023-02-02T19:53:47.469Z,6.10
2023-02-02T19:56:53.388Z,8.40
2023-02-02T19:59:56.715Z,6.70
2023-02-02T20:03:07.503Z,6.00
2023-02-02T20:06:20.943Z,9.10
2023-02-02T20:09:24.332Z,6.60
2023-02-02T20:12:31.043Z,7.30
2023-02-02T20:15:37.017Z,8.50
2023-02-02T20:18:46.418Z,6.00
2023-02-02T20:21:54.339Z,6.60
2023-02-02T20:25:00.860Z,6.20
2023-02-02T20:28:21.597Z,7.70
2023-02-02T20:31:34.504Z,7.50
2023-02-02T20:34:43.667Z,5.50
2023-02-02T20:37:47.292Z,6.00
2023-02-02T20:40:51.051Z,7.20
2023-02-02T20:43:53.785Z,5.40
2023-02-02T20:47:00.287Z,5.40
2023-02-02T20:50:04.160Z,4.60
2023-02-02T20:53:07.509Z,4.80
2023-02-02T20:56:10.392Z,4.20
2023-02-02T20:59:13.263Z,3.50
2023-02-02T21:02:20.340Z,4.00
2023-02-02T21:05:28.597Z,3.90
2023-02-02T21:08:31.816Z,3.80
2023-02-02T21:11:36.588Z,4.20
2023-02-02T21:14:39.716Z,5.10
2023-02-02T21:17:44.136Z,4.40
2023-02-02T21:20:46.916Z,6.10
2023-02-02T21:23:51.627Z,5.80
2023-02-02T21:26:54.459Z,4.80
2023-02-02T21:29:57.931Z,5.90
2023-02-02T21:33:00.807Z,9.40
2023-02-02T21:36:20.383Z,4.30
2023-02-02T21:39:37.238Z,4.50
2023-02-02T21:42:46.485Z,5.60
2023-02-02T21:45:51.517Z,3.90
2023-02-02T21:48:55.480Z,3.10
2023-02-02T21:52:10.846Z,3.80
2023-02-02T21:55:27.360Z,4.00
2023-02-02T21:58:40.020Z,4.00
2023-02-02T22:01:43.281Z,3.50
2023-02-02T22:04:46.131Z,2.90
2023-02-02T22:07:50.325Z,3.00
2023-02-02T22:10:53.072Z,3.60
2023-02-02T22:14:24.337Z,5.30
2023-02-02T22:17:41.078Z,3.60
2023-02-02T22:20:47.265Z,5.40
2023-02-02T22:23:52.064Z,5.70
2023-02-02T22:26:54.962Z,4.70
2023-02-02T22:30:02.899Z,6.00
2023-02-02T22:33:07.774Z,5.30
2023-02-02T22:36:10.511Z,6.80
2023-02-02T22:39:13.234Z,6.40
2023-02-02T22:42:18.211Z,7.00
2023-02-02T22:45:22.159Z,6.70
2023-02-02T22:48:25.085Z,6.20
2023-02-02T22:51:27.907Z,7.20
2023-02-02T22:54:31.172Z,6.80
2023-02-02T22:57:33.963Z,5.00
2023-02-02T23:00:37.779Z,5.40
2023-02-02T23:03:40.711Z,5.30
2023-02-02T23:06:43.579Z,5.80
2023-02-02T23:09:46.353Z,6.60
2023-02-02T23:12:50.628Z,5.50
2023-02-02T23:15:53.522Z,4.60
2023-02-02T23:18:56.430Z,6.00
2023-02-02T23:21:59.193Z,7.40
2023-02-02T23:25:02.011Z,7.00
2023-02-02T23:28:05.196Z,5.60
2023-02-02T23:31:08.187Z,6.70
2023-02-02T23:34:11.132Z,5.30
2023-02-02T23:37:13.920Z,6.80
2023-02-02T23:40:16.974Z,5.60
2023-02-02T23:43:19.791Z,5.50
2023-02-02T23:46:23.257Z,4.50
2023-02-02T23:49:26.146Z,5.30
2023-02-02T23:52:29.007Z,6.40
2023-02-02T23:55:32.352Z,5.50
2023-02-02T23:58:35.349Z,5.50
